• Join FlightAware (Why Join?)
  • Login
  • US Flag 
Rudolph Flight #1: Arrived! 
12:27AM EST


 

Airport Tracker/Info


-or-


 

Live Flight TrackerFlight Track Log ✈ N27XP ✈ 07-Jan-2014 ✈ KSOP - KOCF

Flight Track Log - Related Links

Times and Time Zones

All times are in EST time to prevent confusion due to time zone crossing. See the N27XP flight status page for this flight to view local times or setup timezone preferences in your user account.

Time Position Orientation Groundspeed Altitude Reporting Facility
EST Latitude Longitude Course Direction KTS MPH feet Rate Location/Type
10:33PM 35.0081 -79.5403 206° Southwest 276 318 12,600  Level Washington Center
10:34PM 34.9333 -79.5847 206° Southwest 288 331 14,500 1,980 Climbing Washington Center
10:35PM 34.8483 -79.6361 206° Southwest 310 357 16,500 2,040 Climbing Washington Center
10:36PM 34.7984 -79.6087 195° South  Level Estimated
10:37PM 34.7252 -79.6451 208° Southwest  Level Estimated
10:37PM 34.6875 -79.7264 205° Southwest 331 381 20,300  Level Jacksonville Center
10:38PM 34.6117 -79.7772 209° Southwest 331 381 22,500 1,800 Climbing Jacksonville Center
10:39PM 34.5314 -79.8253 206° Southwest 331 381 24,000 720 Climbing Jacksonville Center
10:40PM 34.4572 -79.8658 204° Southwest 322 371 24,000  Level Jacksonville Center
10:41PM 34.3628 -79.9244 207° Southwest 354 407 24,000 180 Level Jacksonville Center
10:42PM 34.2639 -79.9831 206° Southwest 376 433 24,400 900 Climbing Jacksonville Center
10:43PM 34.1692 -80.0389 206° Southwest 383 441 25,800 1,440 Climbing Jacksonville Center
10:44PM 34.0767 -80.0922 206° Southwest 383 441 27,300 1,080 Climbing Jacksonville Center
10:45PM 33.9900 -80.1450 207° Southwest 365 420 28,000 900 Climbing Jacksonville Center
10:46PM 33.9014 -80.1953 205° Southwest 359 413 29,100 960 Climbing Jacksonville Center
10:47PM 33.8192 -80.2453 207° Southwest 349 402 30,000 960 Climbing Jacksonville Center
10:48PM 33.7344 -80.2928 205° Southwest 339 390 31,100 1,020 Climbing Jacksonville Center
10:49PM 33.6583 -80.3400 207° Southwest 326 375 32,100 960 Climbing Jacksonville Center
10:50PM 33.5800 -80.3869 207° Southwest 321 369 33,100 900 Climbing Jacksonville Center
10:51PM 33.5036 -80.4292 205° Southwest 316 364 34,000 120 Climbing Jacksonville Center
10:52PM 33.4211 -80.4786 207° Southwest 321 369 33,400 -900 Descending Jacksonville Center
10:53PM 33.3342 -80.5283 206° Southwest 327 376 32,200 -1,200 Descending Jacksonville Center
10:54PM 33.2475 -80.5778 206° Southwest 343 395 31,100 -1,080 Descending Jacksonville Center
10:55PM 33.1608 -80.6272 206° Southwest 343 395 30,100 -900 Descending Jacksonville Center
10:56PM 33.0697 -80.6789 205° Southwest 343 395 29,300 -900 Descending Jacksonville Center
10:57PM 32.9811 -80.7308 206° Southwest 355 409 28,400 -900 Descending Jacksonville Center
10:58PM 32.8900 -80.7800 204° Southwest 355 409 27,600 -1,020 Descending Jacksonville Center
10:59PM 32.7886 -80.8392 206° Southwest 360 414 26,400 -840 Descending Jacksonville Center
11:00PM 32.6978 -80.8906 205° Southwest 360 414 26,000 -240 Descending Jacksonville Center
11:01PM 32.6067 -80.9419 205° Southwest 360 414 26,000  Level Jacksonville Center
11:02PM 32.5175 -80.9906 205° Southwest 360 414 26,000  Level Jacksonville Center
11:03PM 32.4267 -81.0442 206° Southwest 359 413 26,000  Level Jacksonville Center
11:04PM 32.3333 -81.0953 205° Southwest 372 428 26,000  Level Jacksonville Center
11:05PM 32.2381 -81.1486 205° Southwest 382 440 26,000  Level Jacksonville Center
11:06PM 32.1447 -81.1997 205° Southwest 382 440 26,000  Level Jacksonville Center
11:07PM 32.0431 -81.2383 198° South 381 438 26,000  Level Jacksonville Center
11:08PM 31.9411 -81.2719 196° South 381 438 26,000  Level Jacksonville Center
11:09PM 31.8497 -81.3053 197° South 374 430 26,000  Level Jacksonville Center
11:10PM 31.7394 -81.3461 197° South 374 430 26,000  Level Jacksonville Center
11:11PM 31.6500 -81.3769 196° South 375 432 26,000  Level Jacksonville Center
11:12PM 31.5400 -81.4178 198° South 375 432 26,000  Level Jacksonville Center
11:13PM 31.4403 -81.4533 197° South 375 432 26,000  Level Jacksonville Center
11:14PM 31.3467 -81.4914 199° South 388 447 26,000 -180 Level Jacksonville Center
11:15PM 31.2447 -81.5319 199° South 388 447 25,700 -720 Descending Jacksonville Center
11:16PM 31.1450 -81.5672 197° South 388 447 24,600 -960 Descending Jacksonville Center
11:17PM 31.0450 -81.6050 198° South 381 438 23,800 -1,080 Descending Jacksonville Center
11:18PM 30.9472 -81.6428 198° South 381 438 22,500 -900 Descending Jacksonville Center
11:19PM 30.8453 -81.6778 196° South 381 438 22,000 -300 Descending Jacksonville Center
11:20PM 30.7414 -81.7178 198° South 386 444 22,000  Level Jacksonville Center
11:21PM 30.6394 -81.7553 198° South 386 444 22,000  Level Jacksonville Center
11:22PM 30.5289 -81.7928 196° South 374 430 22,000  Level Jacksonville Center
11:23PM 30.4228 -81.8303 197° South 384 442 22,000  Level Jacksonville Center
11:24PM 30.3250 -81.8697 199° South 384 442 22,000  Level Jacksonville Center
11:25PM 30.2272 -81.9069 198° South 378 435 22,000 -480 Level Jacksonville Center
11:26PM 30.1272 -81.9417 197° South 378 435 21,100 -2,040 Descending Jacksonville Center
11:27PM 30.0294 -81.9761 197° South 378 435 18,000 -2,460 Descending Jacksonville Center
11:28PM 29.9336 -82.0178 201° Southwest 384 442 16,200 -1,680 Descending Jacksonville Center
11:28PM 29.9233 -82.0228 203° Southwest 330 380 16,100 -180 Descending Jacksonville Center
11:29PM 29.8692 -82.0400 195° South 339 390 16,100 -240 Level Jacksonville Center
11:29PM 29.8442 -82.0497 199° South 362 417 15,900 -1,680 Descending Jacksonville Center
11:30PM 29.7753 -82.0742 197° South 346 398 14,400 -2,100 Descending Jacksonville Center
11:30PM 29.7525 -82.0817 196° South 355 409 13,800 -2,640 Descending Jacksonville Center
11:31PM 29.6794 -82.1086 198° South 368 423 11,800 -2,220 Descending Jacksonville Center
11:31PM 29.6650 -82.1111 189° South 345 397 11,600 -2,220 Descending Jacksonville Center
11:32PM 29.5858 -82.1428 199° South 311 358 9,600 -2,220 Descending Jacksonville Center
11:32PM 29.5775 -82.1450 193° South 347 399 9,400 -1,920 Descending Jacksonville Center
11:33PM 29.5108 -82.1742 201° Southwest 272 313 7,700 -1,920 Descending Jacksonville Center
11:33PM 29.5025 -82.1719 167° South 316 364 7,500 -1,080 Descending Jacksonville Center
11:34PM 29.4169 -82.2061 199° South 295 339 6,400 4,200 Descending Jacksonville Center
11:35PM 29.3378 -82.2350 198° South 295 339 16,000 4,800 Climbing Jacksonville Center
11:36PM 29.2608 -82.2667 200° South 295 339 16,000  Level Jacksonville Center
11:37PM 29.1817 -82.2956 198° South 295 339 16,000  Level Jacksonville Center
11:38PM 29.1358 -82.3150 200° South 295 339 16,000  Level Jacksonville Center